sensor_id;sensor_type;location;lat;lon;timestamp;temperature;humidity
9808;DHT22;4943;52.550;13.462;2024-03-08T00:01:11;5.20;99.90
9808;DHT22;4943;52.550;13.462;2024-03-08T00:03:39;5.20;99.90
9808;DHT22;4943;52.550;13.462;2024-03-08T00:06:07;5.20;99.90
9808;DHT22;4943;52.550;13.462;2024-03-08T00:08:37;5.10;99.90
9808;DHT22;4943;52.550;13.462;2024-03-08T00:11:06;5.10;99.90
9808;DHT22;4943;52.550;13.462;2024-03-08T00:13:35;5.10;99.90
9808;DHT22;4943;52.550;13.462;2024-03-08T00:16:04;5.10;99.90
9808;DHT22;4943;52.550;13.462;2024-03-08T00:18:32;5.00;99.90
9808;DHT22;4943;52.550;13.462;2024-03-08T00:21:00;5.00;99.90
9808;DHT22;4943;52.550;13.462;2024-03-08T00:23:28;5.00;99.90
9808;DHT22;4943;52.550;13.462;2024-03-08T00:25:58;5.00;99.90
9808;DHT22;4943;52.550;13.462;2024-03-08T00:28:26;5.00;99.90
9808;DHT22;4943;52.550;13.462;2024-03-08T00:30:55;5.00;99.90
9808;DHT22;4943;52.550;13.462;2024-03-08T00:33:23;5.00;99.90
9808;DHT22;4943;52.550;13.462;2024-03-08T00:35:51;5.00;99.90
9808;DHT22;4943;52.550;13.462;2024-03-08T00:38:19;4.90;99.90
9808;DHT22;4943;52.550;13.462;2024-03-08T00:40:47;4.90;99.90
9808;DHT22;4943;52.550;13.462;2024-03-08T00:43:17;4.90;99.90
9808;DHT22;4943;52.550;13.462;2024-03-08T00:45:46;4.90;99.90
9808;DHT22;4943;52.550;13.462;2024-03-08T00:48:15;4.90;99.90
9808;DHT22;4943;52.550;13.462;2024-03-08T00:50:43;4.90;99.90
9808;DHT22;4943;52.550;13.462;2024-03-08T00:53:14;4.90;99.90
9808;DHT22;4943;52.550;13.462;2024-03-08T00:55:43;4.80;99.90
9808;DHT22;4943;52.550;13.462;2024-03-08T00:58:13;4.80;99.90
9808;DHT22;4943;52.550;13.462;2024-03-08T01:00:43;4.80;99.90
9808;DHT22;4943;52.550;13.462;2024-03-08T01:03:12;4.80;99.90
9808;DHT22;4943;52.550;13.462;2024-03-08T01:05:43;4.80;99.90
9808;DHT22;4943;52.550;13.462;2024-03-08T01:08:12;4.80;99.90
9808;DHT22;4943;52.550;13.462;2024-03-08T01:10:40;4.70;99.90
9808;DHT22;4943;52.550;13.462;2024-03-08T01:13:08;4.70;99.90
9808;DHT22;4943;52.550;13.462;2024-03-08T01:15:39;4.80;99.90
9808;DHT22;4943;52.550;13.462;2024-03-08T01:18:09;4.70;99.90
9808;DHT22;4943;52.550;13.462;2024-03-08T01:20:40;4.70;99.90
9808;DHT22;4943;52.550;13.462;2024-03-08T01:23:08;4.70;99.90
9808;DHT22;4943;52.550;13.462;2024-03-08T01:25:36;4.70;99.90
9808;DHT22;4943;52.550;13.462;2024-03-08T01:28:08;4.70;99.90
9808;DHT22;4943;52.550;13.462;2024-03-08T01:30:36;4.60;99.90
9808;DHT22;4943;52.550;13.462;2024-03-08T01:33:05;4.60;99.90
9808;DHT22;4943;52.550;13.462;2024-03-08T01:35:35;4.60;99.90
9808;DHT22;4943;52.550;13.462;2024-03-08T01:38:03;4.60;99.90
9808;DHT22;4943;52.550;13.462;2024-03-08T01:40:31;4.60;99.90
9808;DHT22;4943;52.550;13.462;2024-03-08T01:43:25;4.60;99.90
9808;DHT22;4943;52.550;13.462;2024-03-08T01:46:03;4.60;99.90
9808;DHT22;4943;52.550;13.462;2024-03-08T01:48:31;4.60;99.90
9808;DHT22;4943;52.550;13.462;2024-03-08T01:51:01;4.60;99.90
9808;DHT22;4943;52.550;13.462;2024-03-08T01:53:32;4.60;99.90
9808;DHT22;4943;52.550;13.462;2024-03-08T01:56:01;4.50;99.90
9808;DHT22;4943;52.550;13.462;2024-03-08T01:58:31;4.50;99.90
9808;DHT22;4943;52.550;13.462;2024-03-08T02:01:00;4.50;99.90
9808;DHT22;4943;52.550;13.462;2024-03-08T02:03:30;4.40;99.90
9808;DHT22;4943;52.550;13.462;2024-03-08T02:05:58;4.40;99.90
9808;DHT22;4943;52.550;13.462;2024-03-08T02:08:28;4.40;99.90
9808;DHT22;4943;52.550;13.462;2024-03-08T02:10:56;4.40;99.90
9808;DHT22;4943;52.550;13.462;2024-03-08T02:13:25;4.40;99.90
9808;DHT22;4943;52.550;13.462;2024-03-08T02:15:54;4.40;99.90
9808;DHT22;4943;52.550;13.462;2024-03-08T02:18:23;4.30;99.90
9808;DHT22;4943;52.550;13.462;2024-03-08T02:20:53;4.30;99.90
9808;DHT22;4943;52.550;13.462;2024-03-08T02:23:22;4.20;99.90
9808;DHT22;4943;52.550;13.462;2024-03-08T02:25:52;4.20;99.90
9808;DHT22;4943;52.550;13.462;2024-03-08T02:28:21;4.20;99.90
9808;DHT22;4943;52.550;13.462;2024-03-08T02:30:50;4.10;99.90
9808;DHT22;4943;52.550;13.462;2024-03-08T02:33:22;4.10;99.90
9808;DHT22;4943;52.550;13.462;2024-03-08T02:35:50;4.10;99.90
9808;DHT22;4943;52.550;13.462;2024-03-08T02:38:22;4.10;99.90
9808;DHT22;4943;52.550;13.462;2024-03-08T02:40:54;4.10;99.90
9808;DHT22;4943;52.550;13.462;2024-03-08T02:43:22;4.10;99.90
9808;DHT22;4943;52.550;13.462;2024-03-08T02:45:52;4.10;99.90
9808;DHT22;4943;52.550;13.462;2024-03-08T02:48:20;4.10;99.90
9808;DHT22;4943;52.550;13.462;2024-03-08T02:50:50;4.20;99.90
9808;DHT22;4943;52.550;13.462;2024-03-08T02:53:19;4.20;99.90
9808;DHT22;4943;52.550;13.462;2024-03-08T02:55:51;4.20;99.90
9808;DHT22;4943;52.550;13.462;2024-03-08T02:58:19;4.10;99.90
9808;DHT22;4943;52.550;13.462;2024-03-08T03:00:47;4.10;99.90
9808;DHT22;4943;52.550;13.462;2024-03-08T03:03:15;4.10;99.90
9808;DHT22;4943;52.550;13.462;2024-03-08T03:05:43;4.00;99.90
9808;DHT22;4943;52.550;13.462;2024-03-08T03:08:15;4.10;99.90
9808;DHT22;4943;52.550;13.462;2024-03-08T03:10:44;4.10;99.90
9808;DHT22;4943;52.550;13.462;2024-03-08T03:13:14;4.00;99.90
9808;DHT22;4943;52.550;13.462;2024-03-08T03:15:43;4.10;99.90
9808;DHT22;4943;52.550;13.462;2024-03-08T03:18:11;4.00;99.90
9808;DHT22;4943;52.550;13.462;2024-03-08T03:20:40;4.00;99.90
9808;DHT22;4943;52.550;13.462;2024-03-08T03:23:09;4.10;99.90
9808;DHT22;4943;52.550;13.462;2024-03-08T03:25:42;4.10;99.90
9808;DHT22;4943;52.550;13.462;2024-03-08T03:28:14;4.00;99.90
9808;DHT22;4943;52.550;13.462;2024-03-08T03:30:45;4.00;99.90
9808;DHT22;4943;52.550;13.462;2024-03-08T03:33:14;4.00;99.90
9808;DHT22;4943;52.550;13.462;2024-03-08T03:35:44;4.00;99.90
9808;DHT22;4943;52.550;13.462;2024-03-08T03:38:13;4.00;99.90
9808;DHT22;4943;52.550;13.462;2024-03-08T03:40:41;3.90;99.90
9808;DHT22;4943;52.550;13.462;2024-03-08T03:43:12;3.90;99.90
9808;DHT22;4943;52.550;13.462;2024-03-08T03:45:41;3.90;99.90
9808;DHT22;4943;52.550;13.462;2024-03-08T03:48:09;3.90;99.90
9808;DHT22;4943;52.550;13.462;2024-03-08T03:50:39;3.90;99.90
9808;DHT22;4943;52.550;13.462;2024-03-08T03:53:07;3.80;99.90
9808;DHT22;4943;52.550;13.462;2024-03-08T03:55:37;3.90;99.90
9808;DHT22;4943;52.550;13.462;2024-03-08T03:58:09;3.80;99.90
9808;DHT22;4943;52.550;13.462;2024-03-08T04:00:38;3.80;99.90
9808;DHT22;4943;52.550;13.462;2024-03-08T04:03:08;3.80;99.90
9808;DHT22;4943;52.550;13.462;2024-03-08T04:05:37;3.80;99.90
9808;DHT22;4943;52.550;13.462;2024-03-08T04:08:06;3.80;99.90
9808;DHT22;4943;52.550;13.462;2024-03-08T04:10:34;3.80;99.90
9808;DHT22;4943;52.550;13.462;2024-03-08T04:13:03;3.70;99.90
9808;DHT22;4943;52.550;13.462;2024-03-08T04:15:31;3.70;99.90
9808;DHT22;4943;52.550;13.462;2024-03-08T04:18:00;3.70;99.90
9808;DHT22;4943;52.550;13.462;2024-03-08T04:20:30;3.60;99.90
9808;DHT22;4943;52.550;13.462;2024-03-08T04:22:58;3.60;99.90
9808;DHT22;4943;52.550;13.462;2024-03-08T04:25:27;3.60;99.90
9808;DHT22;4943;52.550;13.462;2024-03-08T04:27:55;3.60;99.90
9808;DHT22;4943;52.550;13.462;2024-03-08T04:30:24;3.60;99.90
9808;DHT22;4943;52.550;13.462;2024-03-08T04:32:53;3.60;99.90
9808;DHT22;4943;52.550;13.462;2024-03-08T04:35:21;3.60;99.90
9808;DHT22;4943;52.550;13.462;2024-03-08T04:37:50;3.60;99.90
9808;DHT22;4943;52.550;13.462;2024-03-08T04:40:19;3.60;99.90
9808;DHT22;4943;52.550;13.462;2024-03-08T04:42:47;3.60;99.90
9808;DHT22;4943;52.550;13.462;2024-03-08T04:45:18;3.50;99.90
9808;DHT22;4943;52.550;13.462;2024-03-08T04:47:46;3.50;99.90
9808;DHT22;4943;52.550;13.462;2024-03-08T04:50:14;3.50;99.90
9808;DHT22;4943;52.550;13.462;2024-03-08T04:52:43;3.60;99.90
9808;DHT22;4943;52.550;13.462;2024-03-08T04:55:13;3.50;99.90
9808;DHT22;4943;52.550;13.462;2024-03-08T04:57:41;3.50;99.90
9808;DHT22;4943;52.550;13.462;2024-03-08T05:00:13;3.50;99.90
9808;DHT22;4943;52.550;13.462;2024-03-08T05:02:42;3.50;99.90
9808;DHT22;4943;52.550;13.462;2024-03-08T05:05:10;3.40;99.90
9808;DHT22;4943;52.550;13.462;2024-03-08T05:07:39;3.50;99.90
9808;DHT22;4943;52.550;13.462;2024-03-08T05:10:08;3.40;99.90
9808;DHT22;4943;52.550;13.462;2024-03-08T05:12:38;3.40;99.90
9808;DHT22;4943;52.550;13.462;2024-03-08T05:15:07;3.40;99.90
9808;DHT22;4943;52.550;13.462;2024-03-08T05:17:35;3.40;99.90
9808;DHT22;4943;52.550;13.462;2024-03-08T05:20:07;3.40;99.90
9808;DHT22;4943;52.550;13.462;2024-03-08T05:22:39;3.40;99.90
9808;DHT22;4943;52.550;13.462;2024-03-08T05:25:08;3.30;99.90
9808;DHT22;4943;52.550;13.462;2024-03-08T05:27:39;3.30;99.90
9808;DHT22;4943;52.550;13.462;2024-03-08T05:30:08;3.30;99.90
9808;DHT22;4943;52.550;13.462;2024-03-08T05:32:42;3.30;99.90
9808;DHT22;4943;52.550;13.462;2024-03-08T05:35:11;3.30;99.90
9808;DHT22;4943;52.550;13.462;2024-03-08T05:37:39;3.30;99.90
9808;DHT22;4943;52.550;13.462;2024-03-08T05:40:09;3.30;99.90
9808;DHT22;4943;52.550;13.462;2024-03-08T05:42:45;3.30;99.90
9808;DHT22;4943;52.550;13.462;2024-03-08T05:45:13;3.30;99.90
9808;DHT22;4943;52.550;13.462;2024-03-08T05:47:42;3.30;99.90
9808;DHT22;4943;52.550;13.462;2024-03-08T05:50:10;3.30;99.90
9808;DHT22;4943;52.550;13.462;2024-03-08T05:52:39;3.40;99.90
9808;DHT22;4943;52.550;13.462;2024-03-08T05:55:07;3.40;99.90
9808;DHT22;4943;52.550;13.462;2024-03-08T05:57:37;3.40;99.90
9808;DHT22;4943;52.550;13.462;2024-03-08T06:00:09;3.40;99.90
9808;DHT22;4943;52.550;13.462;2024-03-08T06:02:38;3.40;99.90
9808;DHT22;4943;52.550;13.462;2024-03-08T06:05:09;3.40;99.90
9808;DHT22;4943;52.550;13.462;2024-03-08T06:07:40;3.40;99.90
9808;DHT22;4943;52.550;13.462;2024-03-08T06:10:10;3.40;99.90
9808;DHT22;4943;52.550;13.462;2024-03-08T06:12:40;3.50;99.90
9808;DHT22;4943;52.550;13.462;2024-03-08T06:15:11;3.50;99.90
9808;DHT22;4943;52.550;13.462;2024-03-08T06:17:42;3.40;99.90
9808;DHT22;4943;52.550;13.462;2024-03-08T06:20:11;3.40;99.90
9808;DHT22;4943;52.550;13.462;2024-03-08T06:22:40;3.40;99.90
9808;DHT22;4943;52.550;13.462;2024-03-08T06:25:09;3.40;99.90
9808;DHT22;4943;52.550;13.462;2024-03-08T06:27:37;3.50;99.90
9808;DHT22;4943;52.550;13.462;2024-03-08T06:30:07;3.50;99.90
9808;DHT22;4943;52.550;13.462;2024-03-08T06:32:38;3.60;99.90
9808;DHT22;4943;52.550;13.462;2024-03-08T06:35:07;3.60;99.90
9808;DHT22;4943;52.550;13.462;2024-03-08T06:37:37;3.70;99.90
9808;DHT22;4943;52.550;13.462;2024-03-08T06:40:06;3.70;99.90
9808;DHT22;4943;52.550;13.462;2024-03-08T06:42:40;3.70;99.90
9808;DHT22;4943;52.550;13.462;2024-03-08T06:45:09;3.70;99.90
9808;DHT22;4943;52.550;13.462;2024-03-08T06:47:40;3.70;99.90
9808;DHT22;4943;52.550;13.462;2024-03-08T06:50:10;3.70;99.90
9808;DHT22;4943;52.550;13.462;2024-03-08T06:52:39;3.80;99.90
9808;DHT22;4943;52.550;13.462;2024-03-08T06:55:10;3.80;99.90
9808;DHT22;4943;52.550;13.462;2024-03-08T06:57:39;3.80;99.90
9808;DHT22;4943;52.550;13.462;2024-03-08T07:00:09;3.90;99.90
9808;DHT22;4943;52.550;13.462;2024-03-08T07:02:42;3.90;99.90
9808;DHT22;4943;52.550;13.462;2024-03-08T07:05:12;3.90;99.90
9808;DHT22;4943;52.550;13.462;2024-03-08T07:07:40;4.00;99.90
9808;DHT22;4943;52.550;13.462;2024-03-08T07:10:09;4.00;99.90
9808;DHT22;4943;52.550;13.462;2024-03-08T07:12:38;4.00;99.90
9808;DHT22;4943;52.550;13.462;2024-03-08T07:15:06;3.90;99.90
9808;DHT22;4943;52.550;13.462;2024-03-08T07:17:35;4.00;99.90
9808;DHT22;4943;52.550;13.462;2024-03-08T07:20:06;4.00;99.90
9808;DHT22;4943;52.550;13.462;2024-03-08T07:22:39;4.00;99.90
9808;DHT22;4943;52.550;13.462;2024-03-08T07:25:09;4.00;99.90
9808;DHT22;4943;52.550;13.462;2024-03-08T07:27:48;4.10;99.90
9808;DHT22;4943;52.550;13.462;2024-03-08T07:30:18;4.10;99.90
9808;DHT22;4943;52.550;13.462;2024-03-08T07:33:05;4.10;99.90
9808;DHT22;4943;52.550;13.462;2024-03-08T07:35:37;4.20;99.90
9808;DHT22;4943;52.550;13.462;2024-03-08T07:38:05;4.20;99.90
9808;DHT22;4943;52.550;13.462;2024-03-08T07:40:35;4.30;99.90
9808;DHT22;4943;52.550;13.462;2024-03-08T07:43:06;4.30;99.90
9808;DHT22;4943;52.550;13.462;2024-03-08T07:45:34;4.40;99.90
9808;DHT22;4943;52.550;13.462;2024-03-08T07:48:03;4.40;99.90
9808;DHT22;4943;52.550;13.462;2024-03-08T07:50:39;4.50;99.90
9808;DHT22;4943;52.550;13.462;2024-03-08T07:53:08;4.60;99.90
9808;DHT22;4943;52.550;13.462;2024-03-08T07:55:36;4.60;99.90
9808;DHT22;4943;52.550;13.462;2024-03-08T07:58:06;4.60;99.90
9808;DHT22;4943;52.550;13.462;2024-03-08T08:00:37;4.60;99.90
9808;DHT22;4943;52.550;13.462;2024-03-08T08:03:06;4.70;99.90
9808;DHT22;4943;52.550;13.462;2024-03-08T08:05:35;4.70;99.90
9808;DHT22;4943;52.550;13.462;2024-03-08T08:08:07;4.70;99.90
9808;DHT22;4943;52.550;13.462;2024-03-08T08:10:37;4.80;99.90
9808;DHT22;4943;52.550;13.462;2024-03-08T08:13:05;4.80;99.90
9808;DHT22;4943;52.550;13.462;2024-03-08T08:15:34;4.80;99.90
9808;DHT22;4943;52.550;13.462;2024-03-08T08:18:04;4.90;99.90
9808;DHT22;4943;52.550;13.462;2024-03-08T08:20:33;5.00;99.90
9808;DHT22;4943;52.550;13.462;2024-03-08T08:23:03;5.10;99.90
9808;DHT22;4943;52.550;13.462;2024-03-08T08:25:34;5.10;99.90
9808;DHT22;4943;52.550;13.462;2024-03-08T08:28:02;5.10;99.90
9808;DHT22;4943;52.550;13.462;2024-03-08T08:30:31;5.20;99.90
9808;DHT22;4943;52.550;13.462;2024-03-08T08:33:00;5.20;99.90
9808;DHT22;4943;52.550;13.462;2024-03-08T08:35:29;5.20;99.90
9808;DHT22;4943;52.550;13.462;2024-03-08T08:37:57;5.30;99.90
9808;DHT22;4943;52.550;13.462;2024-03-08T08:40:25;5.30;99.90
9808;DHT22;4943;52.550;13.462;2024-03-08T08:42:57;5.40;99.90
9808;DHT22;4943;52.550;13.462;2024-03-08T08:45:26;5.40;99.90
9808;DHT22;4943;52.550;13.462;2024-03-08T08:47:55;5.40;99.90
9808;DHT22;4943;52.550;13.462;2024-03-08T08:50:24;5.40;99.90
9808;DHT22;4943;52.550;13.462;2024-03-08T08:52:52;5.50;99.90
9808;DHT22;4943;52.550;13.462;2024-03-08T08:55:21;5.50;99.90
9808;DHT22;4943;52.550;13.462;2024-03-08T08:57:53;5.60;99.90
9808;DHT22;4943;52.550;13.462;2024-03-08T09:00:24;5.60;99.90
9808;DHT22;4943;52.550;13.462;2024-03-08T09:02:55;5.70;99.90
9808;DHT22;4943;52.550;13.462;2024-03-08T09:05:25;5.70;99.90
9808;DHT22;4943;52.550;13.462;2024-03-08T09:07:54;5.80;99.90
9808;DHT22;4943;52.550;13.462;2024-03-08T09:10:24;5.80;99.90
9808;DHT22;4943;52.550;13.462;2024-03-08T09:12:55;5.90;99.90
9808;DHT22;4943;52.550;13.462;2024-03-08T09:15:25;5.90;99.90
9808;DHT22;4943;52.550;13.462;2024-03-08T09:17:55;6.00;99.90
9808;DHT22;4943;52.550;13.462;2024-03-08T09:20:24;6.00;99.90
9808;DHT22;4943;52.550;13.462;2024-03-08T09:22:52;6.10;99.90
9808;DHT22;4943;52.550;13.462;2024-03-08T09:25:22;6.10;99.90
9808;DHT22;4943;52.550;13.462;2024-03-08T09:27:50;6.10;99.90
9808;DHT22;4943;52.550;13.462;2024-03-08T09:30:19;6.20;99.90
9808;DHT22;4943;52.550;13.462;2024-03-08T09:32:49;6.20;99.90
9808;DHT22;4943;52.550;13.462;2024-03-08T09:35:19;6.20;99.90
9808;DHT22;4943;52.550;13.462;2024-03-08T09:37:47;6.30;99.90
9808;DHT22;4943;52.550;13.462;2024-03-08T09:40:18;6.30;99.90
9808;DHT22;4943;52.550;13.462;2024-03-08T09:42:48;6.40;99.90
9808;DHT22;4943;52.550;13.462;2024-03-08T09:45:17;6.50;99.90
9808;DHT22;4943;52.550;13.462;2024-03-08T09:47:49;6.60;99.90
9808;DHT22;4943;52.550;13.462;2024-03-08T09:50:17;6.70;99.90
9808;DHT22;4943;52.550;13.462;2024-03-08T09:52:48;6.70;99.90
9808;DHT22;4943;52.550;13.462;2024-03-08T09:55:17;6.80;99.90
9808;DHT22;4943;52.550;13.462;2024-03-08T09:57:51;6.80;99.90
9808;DHT22;4943;52.550;13.462;2024-03-08T10:00:37;6.80;99.90
9808;DHT22;4943;52.550;13.462;2024-03-08T10:03:07;6.80;99.90
9808;DHT22;4943;52.550;13.462;2024-03-08T10:05:37;6.80;99.90
9808;DHT22;4943;52.550;13.462;2024-03-08T10:08:08;6.80;99.90
9808;DHT22;4943;52.550;13.462;2024-03-08T10:10:37;6.90;99.90
9808;DHT22;4943;52.550;13.462;2024-03-08T10:13:07;6.90;99.90
9808;DHT22;4943;52.550;13.462;2024-03-08T10:15:36;6.90;99.90
9808;DHT22;4943;52.550;13.462;2024-03-08T10:18:07;6.90;99.90
9808;DHT22;4943;52.550;13.462;2024-03-08T10:20:37;7.00;99.90
9808;DHT22;4943;52.550;13.462;2024-03-08T10:23:06;7.00;99.90
9808;DHT22;4943;52.550;13.462;2024-03-08T10:25:38;7.10;99.90
9808;DHT22;4943;52.550;13.462;2024-03-08T10:28:07;7.10;99.90
9808;DHT22;4943;52.550;13.462;2024-03-08T10:30:37;7.10;99.90
9808;DHT22;4943;52.550;13.462;2024-03-08T10:33:06;7.20;99.90
9808;DHT22;4943;52.550;13.462;2024-03-08T10:35:35;7.30;99.90
9808;DHT22;4943;52.550;13.462;2024-03-08T10:38:06;7.40;99.90
9808;DHT22;4943;52.550;13.462;2024-03-08T10:40:39;7.40;99.90
9808;DHT22;4943;52.550;13.462;2024-03-08T10:43:15;7.50;99.90
9808;DHT22;4943;52.550;13.462;2024-03-08T10:45:47;7.50;99.90
9808;DHT22;4943;52.550;13.462;2024-03-08T10:48:28;7.40;99.90
9808;DHT22;4943;52.550;13.462;2024-03-08T10:51:04;7.40;99.90
9808;DHT22;4943;52.550;13.462;2024-03-08T10:53:34;7.40;99.90
9808;DHT22;4943;52.550;13.462;2024-03-08T10:56:06;7.40;99.90
9808;DHT22;4943;52.550;13.462;2024-03-08T10:58:38;7.50;99.90
9808;DHT22;4943;52.550;13.462;2024-03-08T11:01:07;7.50;99.90
9808;DHT22;4943;52.550;13.462;2024-03-08T11:03:48;7.60;99.90
9808;DHT22;4943;52.550;13.462;2024-03-08T11:06:23;7.60;99.90
9808;DHT22;4943;52.550;13.462;2024-03-08T11:08:57;7.60;99.90
9808;DHT22;4943;52.550;13.462;2024-03-08T11:11:29;7.60;99.90
9808;DHT22;4943;52.550;13.462;2024-03-08T11:14:03;7.60;99.90
9808;DHT22;4943;52.550;13.462;2024-03-08T11:16:44;7.60;99.90
9808;DHT22;4943;52.550;13.462;2024-03-08T11:19:29;7.70;99.90
9808;DHT22;4943;52.550;13.462;2024-03-08T11:21:59;7.70;99.90
9808;DHT22;4943;52.550;13.462;2024-03-08T11:24:28;7.80;99.90
9808;DHT22;4943;52.550;13.462;2024-03-08T11:27:04;7.80;99.60
9808;DHT22;4943;52.550;13.462;2024-03-08T11:29:36;7.90;99.80
9808;DHT22;4943;52.550;13.462;2024-03-08T11:32:11;7.90;99.80
9808;DHT22;4943;52.550;13.462;2024-03-08T11:34:45;7.90;99.60
9808;DHT22;4943;52.550;13.462;2024-03-08T11:37:15;7.90;99.00
9808;DHT22;4943;52.550;13.462;2024-03-08T11:39:48;7.90;98.80
9808;DHT22;4943;52.550;13.462;2024-03-08T11:42:17;8.00;99.30
9808;DHT22;4943;52.550;13.462;2024-03-08T11:44:46;8.10;99.50
9808;DHT22;4943;52.550;13.462;2024-03-08T11:47:15;8.10;99.90
9808;DHT22;4943;52.550;13.462;2024-03-08T11:49:45;8.20;99.50
9808;DHT22;4943;52.550;13.462;2024-03-08T11:52:16;8.30;98.60
9808;DHT22;4943;52.550;13.462;2024-03-08T11:54:51;8.30;98.70
9808;DHT22;4943;52.550;13.462;2024-03-08T11:57:22;8.30;99.00
9808;DHT22;4943;52.550;13.462;2024-03-08T11:59:51;8.40;99.10
9808;DHT22;4943;52.550;13.462;2024-03-08T12:02:23;8.40;99.30
9808;DHT22;4943;52.550;13.462;2024-03-08T12:04:58;8.50;99.20
9808;DHT22;4943;52.550;13.462;2024-03-08T12:07:29;8.50;98.50
9808;DHT22;4943;52.550;13.462;2024-03-08T12:10:18;8.50;98.50
9808;DHT22;4943;52.550;13.462;2024-03-08T12:12:49;8.60;98.80
9808;DHT22;4943;52.550;13.462;2024-03-08T12:15:19;8.60;99.00
9808;DHT22;4943;52.550;13.462;2024-03-08T12:17:48;8.70;98.90
9808;DHT22;4943;52.550;13.462;2024-03-08T12:20:23;8.70;98.80
9808;DHT22;4943;52.550;13.462;2024-03-08T12:22:52;8.70;98.70
9808;DHT22;4943;52.550;13.462;2024-03-08T12:25:26;8.80;99.00
9808;DHT22;4943;52.550;13.462;2024-03-08T12:27:54;8.80;98.90
9808;DHT22;4943;52.550;13.462;2024-03-08T12:30:25;8.90;98.80
9808;DHT22;4943;52.550;13.462;2024-03-08T12:32:57;8.90;98.60
9808;DHT22;4943;52.550;13.462;2024-03-08T12:35:27;8.90;98.20
9808;DHT22;4943;52.550;13.462;2024-03-08T12:37:58;8.90;98.60
9808;DHT22;4943;52.550;13.462;2024-03-08T12:40:28;9.00;99.00
9808;DHT22;4943;52.550;13.462;2024-03-08T12:42:59;9.00;98.80
9808;DHT22;4943;52.550;13.462;2024-03-08T12:45:28;9.10;98.40
9808;DHT22;4943;52.550;13.462;2024-03-08T12:47:57;9.10;98.70
9808;DHT22;4943;52.550;13.462;2024-03-08T12:50:27;9.10;98.80
9808;DHT22;4943;52.550;13.462;2024-03-08T12:52:56;9.20;98.90
9808;DHT22;4943;52.550;13.462;2024-03-08T12:55:25;9.20;98.50
9808;DHT22;4943;52.550;13.462;2024-03-08T12:57:53;9.20;97.70
9808;DHT22;4943;52.550;13.462;2024-03-08T13:00:21;9.20;98.00
9808;DHT22;4943;52.550;13.462;2024-03-08T13:02:50;9.20;98.40
9808;DHT22;4943;52.550;13.462;2024-03-08T13:05:19;9.20;98.40
9808;DHT22;4943;52.550;13.462;2024-03-08T13:07:48;9.20;97.90
9808;DHT22;4943;52.550;13.462;2024-03-08T13:10:16;9.20;98.10
9808;DHT22;4943;52.550;13.462;2024-03-08T13:12:47;9.20;98.30
9808;DHT22;4943;52.550;13.462;2024-03-08T13:15:19;9.20;98.50
9808;DHT22;4943;52.550;13.462;2024-03-08T13:17:48;9.30;98.40
9808;DHT22;4943;52.550;13.462;2024-03-08T13:20:17;9.20;97.90
9808;DHT22;4943;52.550;13.462;2024-03-08T13:22:58;9.20;98.10
9808;DHT22;4943;52.550;13.462;2024-03-08T13:25:29;9.30;98.40
9808;DHT22;4943;52.550;13.462;2024-03-08T13:27:57;9.30;98.50
9808;DHT22;4943;52.550;13.462;2024-03-08T13:30:27;9.40;98.40
9808;DHT22;4943;52.550;13.462;2024-03-08T13:32:57;9.50;98.30
9808;DHT22;4943;52.550;13.462;2024-03-08T13:35:25;9.50;98.30
9808;DHT22;4943;52.550;13.462;2024-03-08T13:37:58;9.50;97.50
9808;DHT22;4943;52.550;13.462;2024-03-08T13:40:29;9.50;97.50
9808;DHT22;4943;52.550;13.462;2024-03-08T13:42:58;9.50;98.10
9808;DHT22;4943;52.550;13.462;2024-03-08T13:45:28;9.60;97.90
9808;DHT22;4943;52.550;13.462;2024-03-08T13:47:56;9.60;98.20
9808;DHT22;4943;52.550;13.462;2024-03-08T13:50:25;9.60;98.00
9808;DHT22;4943;52.550;13.462;2024-03-08T13:52:53;9.70;97.70
9808;DHT22;4943;52.550;13.462;2024-03-08T13:55:24;9.60;97.80
9808;DHT22;4943;52.550;13.462;2024-03-08T13:57:55;9.50;98.00
9808;DHT22;4943;52.550;13.462;2024-03-08T14:00:24;9.50;98.20
9808;DHT22;4943;52.550;13.462;2024-03-08T14:02:56;9.50;98.30
9808;DHT22;4943;52.550;13.462;2024-03-08T14:05:24;9.50;98.40
9808;DHT22;4943;52.550;13.462;2024-03-08T14:07:53;9.50;98.50
9808;DHT22;4943;52.550;13.462;2024-03-08T14:10:23;9.60;98.60
9808;DHT22;4943;52.550;13.462;2024-03-08T14:12:54;9.60;98.60
9808;DHT22;4943;52.550;13.462;2024-03-08T14:15:22;9.70;98.60
9808;DHT22;4943;52.550;13.462;2024-03-08T14:17:53;9.70;98.50
9808;DHT22;4943;52.550;13.462;2024-03-08T14:20:22;9.70;98.50
9808;DHT22;4943;52.550;13.462;2024-03-08T14:22:52;9.70;98.20
9808;DHT22;4943;52.550;13.462;2024-03-08T14:25:24;9.70;97.70
9808;DHT22;4943;52.550;13.462;2024-03-08T14:27:53;9.60;97.60
9808;DHT22;4943;52.550;13.462;2024-03-08T14:30:25;9.60;97.80
9808;DHT22;4943;52.550;13.462;2024-03-08T14:33:08;9.60;97.80
9808;DHT22;4943;52.550;13.462;2024-03-08T14:35:37;9.60;97.80
9808;DHT22;4943;52.550;13.462;2024-03-08T14:38:05;9.60;97.60
9808;DHT22;4943;52.550;13.462;2024-03-08T14:40:37;9.60;97.70
9808;DHT22;4943;52.550;13.462;2024-03-08T14:43:05;9.70;97.80
9808;DHT22;4943;52.550;13.462;2024-03-08T14:45:33;9.70;97.60
9808;DHT22;4943;52.550;13.462;2024-03-08T14:48:02;9.70;97.60
9808;DHT22;4943;52.550;13.462;2024-03-08T14:50:33;9.70;97.50
9808;DHT22;4943;52.550;13.462;2024-03-08T14:53:04;9.70;97.40
9808;DHT22;4943;52.550;13.462;2024-03-08T14:55:33;9.80;97.40
9808;DHT22;4943;52.550;13.462;2024-03-08T14:58:04;9.80;97.30
9808;DHT22;4943;52.550;13.462;2024-03-08T15:00:32;9.80;97.20
9808;DHT22;4943;52.550;13.462;2024-03-08T15:03:02;9.90;97.90
9808;DHT22;4943;52.550;13.462;2024-03-08T15:05:32;9.90;96.90
9808;DHT22;4943;52.550;13.462;2024-03-08T15:08:06;9.90;96.80
9808;DHT22;4943;52.550;13.462;2024-03-08T15:10:39;9.90;96.70
9808;DHT22;4943;52.550;13.462;2024-03-08T15:13:10;9.90;96.40
9808;DHT22;4943;52.550;13.462;2024-03-08T15:15:49;9.90;96.50
9808;DHT22;4943;52.550;13.462;2024-03-08T15:18:30;9.90;96.50
9808;DHT22;4943;52.550;13.462;2024-03-08T15:21:02;9.90;96.40
9808;DHT22;4943;52.550;13.462;2024-03-08T15:23:34;9.90;96.60
9808;DHT22;4943;52.550;13.462;2024-03-08T15:26:03;9.90;96.20
9808;DHT22;4943;52.550;13.462;2024-03-08T15:28:35;10.00;95.80
9808;DHT22;4943;52.550;13.462;2024-03-08T15:31:04;9.90;95.60
9808;DHT22;4943;52.550;13.462;2024-03-08T15:33:34;9.90;95.10
9808;DHT22;4943;52.550;13.462;2024-03-08T15:36:08;9.90;95.10
9808;DHT22;4943;52.550;13.462;2024-03-08T15:38:38;9.90;95.70
9808;DHT22;4943;52.550;13.462;2024-03-08T15:41:06;9.90;96.00
9808;DHT22;4943;52.550;13.462;2024-03-08T15:43:41;9.90;96.20
9808;DHT22;4943;52.550;13.462;2024-03-08T15:46:11;10.00;96.20
9808;DHT22;4943;52.550;13.462;2024-03-08T15:48:40;10.00;96.00
9808;DHT22;4943;52.550;13.462;2024-03-08T15:51:09;10.00;95.90
9808;DHT22;4943;52.550;13.462;2024-03-08T15:53:38;10.00;96.10
9808;DHT22;4943;52.550;13.462;2024-03-08T15:56:06;10.00;96.00
9808;DHT22;4943;52.550;13.462;2024-03-08T15:58:35;10.00;95.70
9808;DHT22;4943;52.550;13.462;2024-03-08T16:01:06;9.90;95.60
9808;DHT22;4943;52.550;13.462;2024-03-08T16:03:34;9.90;95.80
9808;DHT22;4943;52.550;13.462;2024-03-08T16:06:03;9.90;95.80
9808;DHT22;4943;52.550;13.462;2024-03-08T16:08:33;9.90;95.80
9808;DHT22;4943;52.550;13.462;2024-03-08T16:11:04;9.80;95.80
9808;DHT22;4943;52.550;13.462;2024-03-08T16:13:34;9.80;96.20
9808;DHT22;4943;52.550;13.462;2024-03-08T16:16:06;9.80;96.10
9808;DHT22;4943;52.550;13.462;2024-03-08T16:18:34;9.80;96.10
9808;DHT22;4943;52.550;13.462;2024-03-08T16:21:05;9.80;96.00